createdAt,value
2023-03-19T00:01:54.261Z,98250.84
2023-03-19T00:04:56.798Z,98252.72
2023-03-19T00:08:00.787Z,98249.91
2023-03-19T00:11:07.240Z,98252.47
2023-03-19T00:14:09.928Z,98254.50
2023-03-19T00:17:12.387Z,98255.31
2023-03-19T00:20:16.071Z,98256.44
2023-03-19T00:23:19.878Z,98260.22
2023-03-19T00:26:22.347Z,98255.91
2023-03-19T00:29:24.958Z,98255.97
2023-03-19T00:32:27.499Z,98261.19
2023-03-19T00:35:29.999Z,98259.50
2023-03-19T00:38:34.221Z,98262.44
2023-03-19T00:41:37.027Z,98265.84
2023-03-19T00:44:39.541Z,98264.72
2023-03-19T00:47:42.146Z,98266.75
2023-03-19T00:50:44.742Z,98276.16
2023-03-19T00:53:48.671Z,98267.25
2023-03-19T00:56:51.225Z,98262.47
2023-03-19T00:59:53.766Z,98264.31
2023-03-19T01:02:56.533Z,98267.00
2023-03-19T01:05:59.406Z,98270.97
2023-03-19T01:09:03.308Z,98269.59
2023-03-19T01:12:06.553Z,98272.25
2023-03-19T01:15:10.393Z,98271.72
2023-03-19T01:18:13.325Z,98273.44
2023-03-19T01:21:15.913Z,98270.16
2023-03-19T01:24:19.828Z,98271.25
2023-03-19T01:27:22.848Z,98283.34
2023-03-19T01:30:25.357Z,98286.91
2023-03-19T01:33:27.941Z,98296.97
2023-03-19T01:36:30.605Z,98301.94
2023-03-19T01:39:34.829Z,98301.50
2023-03-19T01:42:52.416Z,98302.63
2023-03-19T01:45:58.272Z,98312.78
2023-03-19T01:49:01.999Z,98309.63
2023-03-19T01:52:06.116Z,98314.22
2023-03-19T01:55:10.635Z,98319.16
2023-03-19T01:58:13.274Z,98324.25
2023-03-19T02:01:15.930Z,98329.63
2023-03-19T02:04:19.536Z,98331.78
2023-03-19T02:07:21.992Z,98327.22
2023-03-19T02:10:26.397Z,98322.88
2023-03-19T02:13:29.386Z,98331.53
2023-03-19T02:16:32.120Z,98326.50
2023-03-19T02:19:39.442Z,98325.84
2023-03-19T02:22:44.762Z,98335.44
2023-03-19T02:25:57.970Z,98338.56
2023-03-19T02:29:00.549Z,98332.63
2023-03-19T02:32:03.758Z,98333.69
2023-03-19T02:35:06.961Z,98347.22
2023-03-19T02:38:09.616Z,98353.28
2023-03-19T02:41:13.685Z,98352.31
2023-03-19T02:44:19.868Z,98331.28
2023-03-19T02:47:22.477Z,98321.03
2023-03-19T02:50:25.463Z,98327.78
2023-03-19T02:53:28.113Z,98328.81
2023-03-19T02:56:32.321Z,98337.34
2023-03-19T02:59:34.886Z,98334.88
2023-03-19T03:02:38.545Z,98332.50
2023-03-19T03:05:40.859Z,98347.13
2023-03-19T03:08:43.375Z,98343.44
2023-03-19T03:11:47.804Z,98317.13
2023-03-19T03:14:50.348Z,98332.38
2023-03-19T03:17:52.976Z,98343.25
2023-03-19T03:20:55.700Z,98338.94
2023-03-19T03:23:58.202Z,98351.00
2023-03-19T03:27:02.160Z,98347.09
2023-03-19T03:30:05.137Z,98345.22
2023-03-19T03:33:08.496Z,98341.75
2023-03-19T03:36:12.355Z,98347.03
2023-03-19T03:39:14.986Z,98334.97
2023-03-19T03:42:19.052Z,98344.13
2023-03-19T03:45:21.693Z,98347.31
2023-03-19T03:48:24.388Z,98347.75
2023-03-19T03:51:27.018Z,98358.41
2023-03-19T03:54:29.576Z,98359.09
2023-03-19T03:57:33.448Z,98355.91
2023-03-19T04:00:36.157Z,98362.19
2023-03-19T04:03:38.828Z,98363.84
2023-03-19T04:06:41.389Z,98365.75
2023-03-19T04:09:44.120Z,98366.34
2023-03-19T04:12:47.930Z,98360.09
2023-03-19T04:15:50.498Z,98370.38
2023-03-19T04:18:53.016Z,98371.63
2023-03-19T04:21:55.631Z,98371.78
2023-03-19T04:24:58.523Z,98382.53
2023-03-19T04:28:03.657Z,98380.44
2023-03-19T04:31:07.527Z,98385.72
2023-03-19T04:34:10.356Z,98378.66
2023-03-19T04:37:13.126Z,98380.72
2023-03-19T04:40:16.761Z,98378.94
2023-03-19T04:43:20.483Z,98384.69
2023-03-19T04:46:23.028Z,98394.19
2023-03-19T04:49:25.975Z,98390.66
2023-03-19T04:52:29.283Z,98387.91
2023-03-19T04:55:32.433Z,98397.22
2023-03-19T04:58:36.288Z,98398.16
2023-03-19T05:01:39.028Z,98402.84
2023-03-19T05:04:41.705Z,98401.59
2023-03-19T05:07:44.269Z,98415.25
2023-03-19T05:10:47.217Z,98410.56
2023-03-19T05:13:51.088Z,98412.97
2023-03-19T05:16:54.241Z,98417.75
2023-03-19T05:19:57.029Z,98417.81
2023-03-19T05:23:00.579Z,98426.53
2023-03-19T05:26:03.146Z,98421.44
2023-03-19T05:29:10.677Z,98420.63
2023-03-19T05:32:13.659Z,98417.78
2023-03-19T05:35:17.458Z,98414.53
2023-03-19T05:38:20.087Z,98416.34
2023-03-19T05:41:22.861Z,98416.66
2023-03-19T05:44:27.183Z,98418.41
2023-03-19T05:47:29.685Z,98416.81
2023-03-19T05:50:33.426Z,98421.94
2023-03-19T05:53:36.132Z,98426.44
2023-03-19T05:56:38.720Z,98429.38
2023-03-19T05:59:42.863Z,98426.59
2023-03-19T06:02:45.807Z,98429.50
2023-03-19T06:05:49.985Z,98441.41
2023-03-19T06:08:53.013Z,98441.53
2023-03-19T06:11:55.618Z,98442.13
2023-03-19T06:14:59.459Z,98452.88
2023-03-19T06:18:01.922Z,98448.22
2023-03-19T06:21:05.260Z,98453.97
2023-03-19T06:24:08.180Z,98456.00
2023-03-19T06:27:10.851Z,98458.84
2023-03-19T06:30:15.556Z,98465.22
2023-03-19T06:33:18.396Z,98462.75
2023-03-19T06:36:20.911Z,98469.13
2023-03-19T06:39:23.520Z,98463.91
2023-03-19T06:42:27.025Z,98451.72
2023-03-19T06:45:30.945Z,98459.13
2023-03-19T06:48:33.719Z,98457.59
2023-03-19T06:51:36.170Z,98455.91
2023-03-19T06:54:38.700Z,98456.44
2023-03-19T06:57:41.368Z,98458.56
2023-03-19T07:00:45.333Z,98466.03
2023-03-19T07:03:47.923Z,98471.00
2023-03-19T07:06:50.466Z,98451.84
2023-03-19T07:09:53.247Z,98457.81
2023-03-19T07:12:55.932Z,98462.69
2023-03-19T07:15:59.924Z,98465.34
2023-03-19T07:19:02.416Z,98467.09
2023-03-19T07:22:05.208Z,98465.41
2023-03-19T07:25:08.781Z,98468.28
2023-03-19T07:28:11.181Z,98471.63
2023-03-19T07:31:16.833Z,98478.25
2023-03-19T07:34:19.430Z,98475.06
2023-03-19T07:37:22.656Z,98478.25
2023-03-19T07:40:25.605Z,98483.59
2023-03-19T07:43:28.068Z,98489.94
2023-03-19T07:46:32.014Z,98481.75
2023-03-19T07:49:34.514Z,98481.72
2023-03-19T07:52:37.115Z,98490.66
2023-03-19T07:55:39.712Z,98489.94
2023-03-19T07:58:42.300Z,98484.69
2023-03-19T08:01:46.108Z,98491.66
2023-03-19T08:04:48.684Z,98491.47
2023-03-19T08:07:51.654Z,98489.31
2023-03-19T08:10:54.783Z,98481.19
2023-03-19T08:13:57.325Z,98491.94
2023-03-19T08:17:01.569Z,98489.56
2023-03-19T08:20:04.600Z,98490.81
2023-03-19T08:23:07.296Z,98495.25
2023-03-19T08:26:09.906Z,98483.59
2023-03-19T08:29:12.623Z,98484.19
2023-03-19T08:32:16.917Z,98488.72
2023-03-19T08:35:20.208Z,98484.81
2023-03-19T08:38:22.703Z,98484.59
2023-03-19T08:41:26.093Z,98492.25
2023-03-19T08:44:28.864Z,98487.06
2023-03-19T08:47:32.840Z,98494.22
2023-03-19T08:50:35.967Z,98485.13
2023-03-19T08:53:39.891Z,98492.09
2023-03-19T08:56:42.400Z,98500.38
2023-03-19T08:59:45.561Z,98499.78
2023-03-19T09:02:49.513Z,98497.19
2023-03-19T09:05:52.122Z,98497.84
2023-03-19T09:08:54.660Z,98506.56
2023-03-19T09:11:57.414Z,98511.50
2023-03-19T09:14:59.932Z,98504.31
2023-03-19T09:18:04.048Z,98507.31
2023-03-19T09:21:06.938Z,98498.53
2023-03-19T09:24:09.751Z,98499.25
2023-03-19T09:27:12.592Z,98491.59
2023-03-19T09:30:15.601Z,98499.84
2023-03-19T09:33:21.345Z,98502.06
2023-03-19T09:36:23.930Z,98501.63
2023-03-19T09:39:26.584Z,98508.38
2023-03-19T09:42:43.109Z,98501.44
2023-03-19T09:45:46.782Z,98500.63
2023-03-19T09:48:53.838Z,98487.69
2023-03-19T09:51:58.117Z,98493.97
2023-03-19T09:55:04.522Z,98497.06
2023-03-19T09:58:13.852Z,98493.47
2023-03-19T10:01:25.696Z,98499.78
2023-03-19T10:04:40.506Z,98484.34
2023-03-19T10:07:51.681Z,98486.88
2023-03-19T10:11:04.730Z,98485.97
2023-03-19T10:14:22.168Z,98486.38
2023-03-19T10:17:30.227Z,98482.53
2023-03-19T10:20:40.988Z,98480.69
2023-03-19T10:23:46.680Z,98474.19
2023-03-19T10:26:49.527Z,98467.72
2023-03-19T10:29:52.172Z,98471.69
2023-03-19T10:33:00.764Z,98475.09
2023-03-19T10:36:07.133Z,98466.47
2023-03-19T10:39:09.956Z,98466.75
2023-03-19T10:42:33.339Z,98457.94
2023-03-19T10:45:38.860Z,98459.16
2023-03-19T10:48:44.486Z,98449.00
2023-03-19T10:51:49.150Z,98452.19
2023-03-19T10:54:55.887Z,98444.38
2023-03-19T10:58:04.635Z,98438.97
2023-03-19T11:01:10.021Z,98431.31
2023-03-19T11:04:15.365Z,98426.22
2023-03-19T11:07:21.617Z,98437.50
2023-03-19T11:10:25.593Z,98431.91
2023-03-19T11:13:28.474Z,98431.94
2023-03-19T11:16:31.176Z,98435.88
2023-03-19T11:19:35.509Z,98422.31
2023-03-19T11:22:39.993Z,98433.69
2023-03-19T11:25:43.557Z,98430.25
2023-03-19T11:28:51.698Z,98429.16
2023-03-19T11:32:08.649Z,98423.97
2023-03-19T11:35:22.024Z,98425.94
2023-03-19T11:38:32.836Z,98429.50
2023-03-19T11:41:48.360Z,98424.94
2023-03-19T11:44:58.368Z,98420.38
2023-03-19T11:48:10.187Z,98408.53
2023-03-19T11:51:18.992Z,98401.72
2023-03-19T11:54:28.857Z,98398.19
2023-03-19T11:57:48.866Z,98408.06
2023-03-19T12:00:52.710Z,98400.50
2023-03-19T12:04:28.922Z,98397.78
2023-03-19T12:07:34.924Z,98394.59
2023-03-19T12:10:46.398Z,98394.63
2023-03-19T12:14:02.691Z,98395.41
2023-03-19T12:17:16.977Z,98400.94
2023-03-19T12:20:43.336Z,98389.78
2023-03-19T12:23:58.967Z,98386.97
2023-03-19T12:27:12.494Z,98383.94
2023-03-19T12:30:32.005Z,98376.00
2023-03-19T12:33:41.169Z,98388.03
2023-03-19T12:36:49.955Z,98394.41
2023-03-19T12:39:59.682Z,98386.69
2023-03-19T12:43:06.728Z,98376.28
2023-03-19T12:46:13.229Z,98386.13
2023-03-19T12:49:18.106Z,98389.59
2023-03-19T12:52:23.583Z,98380.69
2023-03-19T12:55:36.319Z,98374.81
2023-03-19T12:58:49.806Z,98383.09
2023-03-19T13:01:53.040Z,98376.19
2023-03-19T13:04:57.943Z,98377.75
2023-03-19T13:08:05.205Z,98385.09
2023-03-19T13:11:14.929Z,98391.25
2023-03-19T13:14:23.474Z,98396.72
2023-03-19T13:17:31.008Z,98421.38
2023-03-19T13:20:47.734Z,98424.72
2023-03-19T13:23:52.862Z,98403.97
2023-03-19T13:26:56.654Z,98411.97
2023-03-19T13:30:17.715Z,98414.34
2023-03-19T13:33:24.533Z,98412.78
2023-03-19T13:36:28.623Z,98407.31
2023-03-19T13:39:33.291Z,98412.31
2023-03-19T13:42:39.940Z,98407.31
2023-03-19T13:45:43.847Z,98407.75
2023-03-19T13:48:52.555Z,98405.19
2023-03-19T13:51:56.368Z,98411.41
2023-03-19T13:55:27.990Z,98405.81
2023-03-19T13:58:48.693Z,98405.53
2023-03-19T14:01:52.587Z,98405.75
2023-03-19T14:04:59.755Z,98409.06
2023-03-19T14:08:02.311Z,98406.88
2023-03-19T14:11:06.702Z,98414.94
2023-03-19T14:14:14.571Z,98419.56
2023-03-19T14:17:23.314Z,98401.41
2023-03-19T14:20:35.393Z,98404.16
2023-03-19T14:23:46.736Z,98393.84
2023-03-19T14:26:49.892Z,98404.94
2023-03-19T14:29:53.324Z,98397.00
2023-03-19T14:32:58.246Z,98391.94
2023-03-19T14:36:04.582Z,98398.16
2023-03-19T14:39:10.639Z,98392.16
2023-03-19T14:42:18.450Z,98391.88
2023-03-19T14:45:32.714Z,98399.47
2023-03-19T14:49:02.898Z,98404.94
2023-03-19T14:52:07.578Z,98408.06
2023-03-19T14:55:13.959Z,98416.25
2023-03-19T14:58:16.536Z,98405.44
2023-03-19T15:01:19.768Z,98409.22
2023-03-19T15:04:25.454Z,98407.97
2023-03-19T15:07:31.463Z,98410.94
2023-03-19T15:10:37.994Z,98404.97
2023-03-19T15:13:49.598Z,98405.22
2023-03-19T15:16:57.671Z,98411.97
2023-03-19T15:20:03.015Z,98414.66
2023-03-19T15:23:19.853Z,98414.47
2023-03-19T15:26:31.589Z,98420.38
2023-03-19T15:29:37.852Z,98421.66
2023-03-19T15:32:54.305Z,98427.16
2023-03-19T15:36:09.871Z,98427.47
2023-03-19T15:39:13.006Z,98433.25
2023-03-19T15:42:17.915Z,98439.72
2023-03-19T15:45:23.870Z,98431.63
2023-03-19T15:48:29.167Z,98425.38
2023-03-19T15:51:33.391Z,98433.91
2023-03-19T15:54:35.962Z,98432.75
2023-03-19T15:57:39.929Z,98436.00
2023-03-19T16:00:42.978Z,98435.69
2023-03-19T16:03:47.019Z,98443.72
2023-03-19T16:06:52.627Z,98459.50
2023-03-19T16:09:55.347Z,98459.75
2023-03-19T16:12:57.982Z,98469.81
2023-03-19T16:16:06.790Z,98486.47
2023-03-19T16:19:29.092Z,98493.22
2023-03-19T16:22:34.023Z,98498.34
2023-03-19T16:25:36.787Z,98506.25
2023-03-19T16:28:45.230Z,98508.50
2023-03-19T16:31:52.367Z,98515.94
2023-03-19T16:34:56.086Z,98523.75
2023-03-19T16:38:14.436Z,98532.28
2023-03-19T16:41:18.838Z,98530.69
2023-03-19T16:44:30.220Z,98540.81
2023-03-19T16:47:34.067Z,98541.19
2023-03-19T16:50:38.297Z,98540.72
2023-03-19T16:53:42.456Z,98551.25
2023-03-19T16:56:44.943Z,98541.09
2023-03-19T16:59:47.905Z,98541.75
2023-03-19T17:02:50.434Z,98546.16
2023-03-19T17:05:53.233Z,98546.41
2023-03-19T17:08:57.201Z,98555.50
2023-03-19T17:12:01.368Z,98553.09
2023-03-19T17:15:04.167Z,98559.63
2023-03-19T17:18:13.558Z,98559.06
2023-03-19T17:21:18.383Z,98560.53
2023-03-19T17:24:27.285Z,98566.34
2023-03-19T17:27:30.011Z,98564.13
2023-03-19T17:30:32.889Z,98558.78
2023-03-19T17:33:35.842Z,98573.22
2023-03-19T17:36:38.424Z,98570.00
2023-03-19T17:39:43.276Z,98594.44
2023-03-19T17:42:45.920Z,98591.19
2023-03-19T17:45:49.299Z,98595.81
2023-03-19T17:48:52.793Z,98602.13
2023-03-19T17:51:56.005Z,98609.66
2023-03-19T17:55:00.822Z,98611.13
2023-03-19T17:58:03.460Z,98611.50
2023-03-19T18:01:12.906Z,98606.38
2023-03-19T18:04:17.044Z,98606.38
2023-03-19T18:07:19.626Z,98609.44
2023-03-19T18:10:26.639Z,98616.34
2023-03-19T18:13:29.291Z,98610.91
2023-03-19T18:16:33.074Z,98614.09
2023-03-19T18:19:37.430Z,98606.56
2023-03-19T18:22:40.063Z,98605.94
2023-03-19T18:25:44.946Z,98612.06
2023-03-19T18:28:47.446Z,98612.84
2023-03-19T18:31:51.270Z,98616.22
2023-03-19T18:34:53.777Z,98615.25
2023-03-19T18:37:56.637Z,98613.34
2023-03-19T18:41:00.629Z,98628.94
2023-03-19T18:44:03.612Z,98615.78
2023-03-19T18:47:07.317Z,98614.94
2023-03-19T18:50:14.462Z,98622.69
2023-03-19T18:53:17.856Z,98629.09
2023-03-19T18:56:23.767Z,98632.78
2023-03-19T18:59:27.742Z,98625.56
2023-03-19T19:02:33.359Z,98644.69
2023-03-19T19:05:36.316Z,98635.03
2023-03-19T19:08:38.776Z,98642.59
2023-03-19T19:11:45.685Z,98651.25
2023-03-19T19:14:48.504Z,98651.75
2023-03-19T19:17:51.835Z,98656.09
2023-03-19T19:20:54.882Z,98653.03
2023-03-19T19:23:57.482Z,98652.84
2023-03-19T19:27:01.559Z,98645.13
2023-03-19T19:30:04.644Z,98650.94
2023-03-19T19:33:07.347Z,98656.72
2023-03-19T19:36:11.660Z,98657.84
2023-03-19T19:39:14.251Z,98666.69
2023-03-19T19:42:19.844Z,98666.38
2023-03-19T19:45:30.140Z,98668.31
2023-03-19T19:48:32.610Z,98663.00
2023-03-19T19:51:35.311Z,98669.75
2023-03-19T19:54:39.857Z,98674.41
2023-03-19T19:57:44.411Z,98668.63
2023-03-19T20:01:00.149Z,98671.69
2023-03-19T20:04:06.174Z,98673.91
2023-03-19T20:07:08.617Z,98679.06
2023-03-19T20:10:12.901Z,98675.34
2023-03-19T20:13:24.833Z,98679.06
2023-03-19T20:16:27.723Z,98684.81
2023-03-19T20:19:30.448Z,98686.72
2023-03-19T20:22:33.423Z,98683.50
2023-03-19T20:25:37.616Z,98694.06
2023-03-19T20:28:42.652Z,98688.97
2023-03-19T20:31:46.271Z,98704.41
2023-03-19T20:34:49.739Z,98710.06
2023-03-19T20:37:52.918Z,98703.31
2023-03-19T20:40:57.103Z,98707.66
2023-03-19T20:44:02.713Z,98713.13
2023-03-19T20:47:06.953Z,98709.44
2023-03-19T20:50:17.550Z,98713.28
2023-03-19T20:53:20.390Z,98715.88
2023-03-19T20:56:24.541Z,98719.41
2023-03-19T20:59:28.935Z,98726.03
2023-03-19T21:02:32.227Z,98730.03
2023-03-19T21:05:37.152Z,98724.88
2023-03-19T21:08:41.814Z,98724.09
2023-03-19T21:11:44.769Z,98731.63
2023-03-19T21:14:48.612Z,98740.97
2023-03-19T21:17:51.538Z,98743.53
2023-03-19T21:20:55.493Z,98735.97
2023-03-19T21:23:59.935Z,98732.25
2023-03-19T21:27:04.084Z,98731.56
2023-03-19T21:30:11.756Z,98732.97
2023-03-19T21:33:22.301Z,98736.59
2023-03-19T21:36:24.941Z,98735.91
2023-03-19T21:39:27.488Z,98741.03
2023-03-19T21:42:31.775Z,98745.00
2023-03-19T21:45:36.514Z,98749.00
2023-03-19T21:48:39.840Z,98743.16
2023-03-19T21:51:43.661Z,98753.06
2023-03-19T21:54:46.447Z,98747.25
2023-03-19T21:57:49.076Z,98742.56
2023-03-19T22:00:53.210Z,98739.78
2023-03-19T22:03:57.243Z,98751.44
2023-03-19T22:06:59.906Z,98741.97
2023-03-19T22:10:02.625Z,98747.22
2023-03-19T22:13:06.142Z,98750.06
2023-03-19T22:16:18.265Z,98747.47
2023-03-19T22:19:21.507Z,98744.69
2023-03-19T22:22:24.058Z,98758.41
2023-03-19T22:25:30.022Z,98757.56
2023-03-19T22:28:34.366Z,98765.91
2023-03-19T22:31:38.554Z,98767.91
2023-03-19T22:34:41.199Z,98766.03
2023-03-19T22:37:43.955Z,98770.00
2023-03-19T22:40:48.284Z,98777.41
2023-03-19T22:43:51.344Z,98781.47
2023-03-19T22:46:55.899Z,98778.84
2023-03-19T22:49:58.484Z,98776.25
2023-03-19T22:53:01.048Z,98789.97
2023-03-19T22:56:04.612Z,98790.50
2023-03-19T22:59:07.145Z,98795.50
2023-03-19T23:02:14.837Z,98803.06
2023-03-19T23:05:29.673Z,98808.72
2023-03-19T23:08:32.398Z,98810.03
2023-03-19T23:11:34.895Z,98806.50
2023-03-19T23:14:37.995Z,98808.28
2023-03-19T23:17:42.366Z,98808.56
2023-03-19T23:20:46.362Z,98808.91
2023-03-19T23:23:49.637Z,98809.22
2023-03-19T23:26:54.055Z,98806.34
2023-03-19T23:29:56.588Z,98799.59
2023-03-19T23:33:02.665Z,98803.75
2023-03-19T23:36:05.910Z,98800.41
2023-03-19T23:39:09.369Z,98800.38
2023-03-19T23:42:14.068Z,98790.09
2023-03-19T23:45:23.378Z,98795.41
2023-03-19T23:48:32.318Z,98781.25
2023-03-19T23:51:34.919Z,98795.72
2023-03-19T23:54:38.790Z,98792.50
2023-03-19T23:57:41.773Z,98796.69
